sensor_id;sensor_type;location;lat;lon;timestamp;temperature;humidity
792;DHT22;379;49.022;12.148;2022-12-16T00:01:27;-1.30;99.90
792;DHT22;379;49.022;12.148;2022-12-16T00:03:56;-1.30;99.90
792;DHT22;379;49.022;12.148;2022-12-16T00:06:25;-1.40;99.90
792;DHT22;379;49.022;12.148;2022-12-16T00:08:52;-1.40;99.90
792;DHT22;379;49.022;12.148;2022-12-16T00:11:19;-1.40;99.90
792;DHT22;379;49.022;12.148;2022-12-16T00:13:46;-1.40;99.90
792;DHT22;379;49.022;12.148;2022-12-16T00:16:16;-1.50;99.90
792;DHT22;379;49.022;12.148;2022-12-16T00:18:44;-1.50;99.90
792;DHT22;379;49.022;12.148;2022-12-16T00:21:11;-1.50;99.90
792;DHT22;379;49.022;12.148;2022-12-16T00:23:38;-1.50;99.90
792;DHT22;379;49.022;12.148;2022-12-16T00:26:06;-1.50;99.90
792;DHT22;379;49.022;12.148;2022-12-16T00:28:33;-1.60;99.90
792;DHT22;379;49.022;12.148;2022-12-16T00:31:00;-1.50;99.90
792;DHT22;379;49.022;12.148;2022-12-16T00:33:28;-1.60;99.90
792;DHT22;379;49.022;12.148;2022-12-16T00:35:55;-1.60;99.90
792;DHT22;379;49.022;12.148;2022-12-16T00:38:23;-1.60;99.90
792;DHT22;379;49.022;12.148;2022-12-16T00:40:50;-1.60;99.90
792;DHT22;379;49.022;12.148;2022-12-16T00:43:17;-1.60;99.90
792;DHT22;379;49.022;12.148;2022-12-16T00:45:45;-1.60;99.90
792;DHT22;379;49.022;12.148;2022-12-16T00:48:12;-1.60;99.90
792;DHT22;379;49.022;12.148;2022-12-16T00:50:42;-1.60;99.90
792;DHT22;379;49.022;12.148;2022-12-16T00:53:09;-1.60;99.90
792;DHT22;379;49.022;12.148;2022-12-16T00:55:36;-1.60;99.90
792;DHT22;379;49.022;12.148;2022-12-16T00:58:03;-1.60;99.90
792;DHT22;379;49.022;12.148;2022-12-16T01:00:30;-1.60;99.90
792;DHT22;379;49.022;12.148;2022-12-16T01:02:57;-1.60;99.90
792;DHT22;379;49.022;12.148;2022-12-16T01:05:24;-1.60;99.90
792;DHT22;379;49.022;12.148;2022-12-16T01:07:53;-1.60;99.90
792;DHT22;379;49.022;12.148;2022-12-16T01:10:20;-1.60;99.90
792;DHT22;379;49.022;12.148;2022-12-16T01:12:47;-1.60;99.90
792;DHT22;379;49.022;12.148;2022-12-16T01:15:14;-1.60;99.90
792;DHT22;379;49.022;12.148;2022-12-16T01:17:41;-1.60;99.90
792;DHT22;379;49.022;12.148;2022-12-16T01:20:09;-1.60;99.90
792;DHT22;379;49.022;12.148;2022-12-16T01:22:36;-1.60;99.90
792;DHT22;379;49.022;12.148;2022-12-16T01:25:05;-1.60;99.90
792;DHT22;379;49.022;12.148;2022-12-16T01:27:32;-1.60;99.90
792;DHT22;379;49.022;12.148;2022-12-16T01:30:00;-1.60;99.90
792;DHT22;379;49.022;12.148;2022-12-16T01:32:27;-1.60;99.90
792;DHT22;379;49.022;12.148;2022-12-16T01:34:54;-1.60;99.90
792;DHT22;379;49.022;12.148;2022-12-16T01:37:22;-1.60;99.90
792;DHT22;379;49.022;12.148;2022-12-16T01:39:49;-1.60;99.90
792;DHT22;379;49.022;12.148;2022-12-16T01:42:19;-1.60;99.90
792;DHT22;379;49.022;12.148;2022-12-16T01:44:48;-1.60;99.90
792;DHT22;379;49.022;12.148;2022-12-16T01:47:16;-1.60;99.90
792;DHT22;379;49.022;12.148;2022-12-16T01:49:49;-1.60;99.90
792;DHT22;379;49.022;12.148;2022-12-16T01:52:22;-1.60;99.90
792;DHT22;379;49.022;12.148;2022-12-16T01:54:52;-1.60;99.90
792;DHT22;379;49.022;12.148;2022-12-16T01:57:28;-1.60;99.90
792;DHT22;379;49.022;12.148;2022-12-16T01:59:58;-1.60;99.90
792;DHT22;379;49.022;12.148;2022-12-16T02:02:26;-1.60;99.90
792;DHT22;379;49.022;12.148;2022-12-16T02:04:53;-1.60;99.90
792;DHT22;379;49.022;12.148;2022-12-16T02:07:38;-1.60;99.90
792;DHT22;379;49.022;12.148;2022-12-16T02:10:06;-1.60;99.90
792;DHT22;379;49.022;12.148;2022-12-16T02:12:40;-1.60;99.90
792;DHT22;379;49.022;12.148;2022-12-16T02:15:30;-1.60;99.90
792;DHT22;379;49.022;12.148;2022-12-16T02:18:09;-1.60;99.90
792;DHT22;379;49.022;12.148;2022-12-16T02:21:05;-1.50;99.90
792;DHT22;379;49.022;12.148;2022-12-16T02:27:21;-1.50;99.90
792;DHT22;379;49.022;12.148;2022-12-16T02:30:22;-1.50;99.90
792;DHT22;379;49.022;12.148;2022-12-16T02:32:56;-1.50;99.90
792;DHT22;379;49.022;12.148;2022-12-16T02:35:34;-1.50;99.90
792;DHT22;379;49.022;12.148;2022-12-16T02:38:11;-1.50;99.90
792;DHT22;379;49.022;12.148;2022-12-16T02:40:42;-1.50;99.90
792;DHT22;379;49.022;12.148;2022-12-16T02:43:16;-1.50;99.90
792;DHT22;379;49.022;12.148;2022-12-16T02:45:46;-1.50;99.90
792;DHT22;379;49.022;12.148;2022-12-16T02:48:13;-1.50;99.90
792;DHT22;379;49.022;12.148;2022-12-16T02:50:42;-1.50;99.90
792;DHT22;379;49.022;12.148;2022-12-16T02:53:11;-1.50;99.90
792;DHT22;379;49.022;12.148;2022-12-16T02:55:47;-1.50;99.90
792;DHT22;379;49.022;12.148;2022-12-16T02:58:17;-1.60;99.90
792;DHT22;379;49.022;12.148;2022-12-16T03:00:52;-1.60;99.90
792;DHT22;379;49.022;12.148;2022-12-16T03:03:24;-1.60;99.90
792;DHT22;379;49.022;12.148;2022-12-16T03:05:53;-1.60;99.90
792;DHT22;379;49.022;12.148;2022-12-16T03:08:25;-1.60;99.90
792;DHT22;379;49.022;12.148;2022-12-16T03:10:57;-1.60;99.90
792;DHT22;379;49.022;12.148;2022-12-16T03:13:26;-1.60;99.90
792;DHT22;379;49.022;12.148;2022-12-16T03:15:57;-1.60;99.90
792;DHT22;379;49.022;12.148;2022-12-16T03:18:26;-1.60;99.90
792;DHT22;379;49.022;12.148;2022-12-16T03:20:54;-1.70;99.90
792;DHT22;379;49.022;12.148;2022-12-16T03:23:25;-1.70;99.90
792;DHT22;379;49.022;12.148;2022-12-16T03:25:55;-1.70;99.90
792;DHT22;379;49.022;12.148;2022-12-16T03:28:30;-1.70;99.90
792;DHT22;379;49.022;12.148;2022-12-16T03:31:04;-1.80;99.90
792;DHT22;379;49.022;12.148;2022-12-16T03:33:37;-1.80;99.90
792;DHT22;379;49.022;12.148;2022-12-16T03:36:09;-1.80;99.90
792;DHT22;379;49.022;12.148;2022-12-16T03:38:38;-1.80;99.90
792;DHT22;379;49.022;12.148;2022-12-16T03:41:06;-1.80;99.90
792;DHT22;379;49.022;12.148;2022-12-16T03:43:33;-1.80;99.90
792;DHT22;379;49.022;12.148;2022-12-16T03:46:04;-1.90;99.90
792;DHT22;379;49.022;12.148;2022-12-16T03:48:31;-1.90;99.90
792;DHT22;379;49.022;12.148;2022-12-16T03:50:58;-1.90;99.90
792;DHT22;379;49.022;12.148;2022-12-16T03:53:25;-1.90;99.90
792;DHT22;379;49.022;12.148;2022-12-16T03:55:52;-1.90;99.90
792;DHT22;379;49.022;12.148;2022-12-16T03:58:19;-1.90;99.90
792;DHT22;379;49.022;12.148;2022-12-16T04:00:46;-2.00;99.90
792;DHT22;379;49.022;12.148;2022-12-16T04:03:14;-2.00;99.90
792;DHT22;379;49.022;12.148;2022-12-16T04:05:41;-2.00;99.90
792;DHT22;379;49.022;12.148;2022-12-16T04:08:08;-2.00;99.90
792;DHT22;379;49.022;12.148;2022-12-16T04:10:34;-2.00;99.90
792;DHT22;379;49.022;12.148;2022-12-16T04:13:20;-2.10;99.90
792;DHT22;379;49.022;12.148;2022-12-16T04:16:04;-2.10;99.90
792;DHT22;379;49.022;12.148;2022-12-16T04:18:50;-2.10;99.90
792;DHT22;379;49.022;12.148;2022-12-16T04:21:35;-2.10;99.90
792;DHT22;379;49.022;12.148;2022-12-16T04:24:19;-2.10;99.90
792;DHT22;379;49.022;12.148;2022-12-16T04:26:49;-2.20;99.90
792;DHT22;379;49.022;12.148;2022-12-16T04:29:33;-2.20;99.90
792;DHT22;379;49.022;12.148;2022-12-16T04:32:20;-2.20;99.90
792;DHT22;379;49.022;12.148;2022-12-16T04:34:49;-2.20;99.90
792;DHT22;379;49.022;12.148;2022-12-16T04:37:16;-2.20;99.90
792;DHT22;379;49.022;12.148;2022-12-16T04:40:00;-2.20;99.90
792;DHT22;379;49.022;12.148;2022-12-16T04:42:44;-2.20;99.90
792;DHT22;379;49.022;12.148;2022-12-16T04:45:29;-2.20;99.90
792;DHT22;379;49.022;12.148;2022-12-16T04:48:13;-2.20;99.90
792;DHT22;379;49.022;12.148;2022-12-16T04:50:59;-2.30;99.90
792;DHT22;379;49.022;12.148;2022-12-16T04:53:43;-2.30;99.90
792;DHT22;379;49.022;12.148;2022-12-16T04:56:27;-2.30;99.90
792;DHT22;379;49.022;12.148;2022-12-16T04:59:12;-2.20;99.90
792;DHT22;379;49.022;12.148;2022-12-16T05:01:56;-2.30;99.90
792;DHT22;379;49.022;12.148;2022-12-16T05:04:40;-2.20;99.90
792;DHT22;379;49.022;12.148;2022-12-16T05:07:25;-2.30;99.90
792;DHT22;379;49.022;12.148;2022-12-16T05:10:10;-2.30;99.90
792;DHT22;379;49.022;12.148;2022-12-16T05:12:54;-2.30;99.90
792;DHT22;379;49.022;12.148;2022-12-16T05:15:39;-2.30;99.90
792;DHT22;379;49.022;12.148;2022-12-16T05:18:23;-2.30;99.90
792;DHT22;379;49.022;12.148;2022-12-16T05:21:08;-2.30;99.90
792;DHT22;379;49.022;12.148;2022-12-16T05:23:53;-2.30;99.90
792;DHT22;379;49.022;12.148;2022-12-16T05:26:38;-2.30;99.90
792;DHT22;379;49.022;12.148;2022-12-16T05:29:22;-2.30;99.90
792;DHT22;379;49.022;12.148;2022-12-16T05:32:06;-2.40;99.90
792;DHT22;379;49.022;12.148;2022-12-16T05:34:50;-2.30;99.90
792;DHT22;379;49.022;12.148;2022-12-16T05:37:35;-2.40;99.90
792;DHT22;379;49.022;12.148;2022-12-16T05:40:21;-2.40;99.90
792;DHT22;379;49.022;12.148;2022-12-16T05:43:05;-2.30;99.90
792;DHT22;379;49.022;12.148;2022-12-16T05:45:49;-2.30;99.90
792;DHT22;379;49.022;12.148;2022-12-16T05:48:32;-2.40;99.90
792;DHT22;379;49.022;12.148;2022-12-16T05:51:17;-2.40;99.90
792;DHT22;379;49.022;12.148;2022-12-16T05:54:01;-2.40;99.90
792;DHT22;379;49.022;12.148;2022-12-16T05:56:47;-2.40;99.90
792;DHT22;379;49.022;12.148;2022-12-16T05:59:31;-2.40;99.90
792;DHT22;379;49.022;12.148;2022-12-16T06:02:15;-2.40;99.90
792;DHT22;379;49.022;12.148;2022-12-16T06:04:59;-2.40;99.90
792;DHT22;379;49.022;12.148;2022-12-16T06:07:49;-2.40;99.90
792;DHT22;379;49.022;12.148;2022-12-16T06:10:33;-2.30;99.90
792;DHT22;379;49.022;12.148;2022-12-16T06:13:19;-2.40;99.90
792;DHT22;379;49.022;12.148;2022-12-16T06:16:03;-2.40;99.90
792;DHT22;379;49.022;12.148;2022-12-16T06:18:48;-2.40;99.90
792;DHT22;379;49.022;12.148;2022-12-16T06:21:32;-2.40;99.90
792;DHT22;379;49.022;12.148;2022-12-16T06:24:16;-2.40;99.90
792;DHT22;379;49.022;12.148;2022-12-16T06:27:00;-2.40;99.90
792;DHT22;379;49.022;12.148;2022-12-16T06:29:46;-2.40;99.90
792;DHT22;379;49.022;12.148;2022-12-16T06:32:30;-2.40;99.90
792;DHT22;379;49.022;12.148;2022-12-16T06:35:15;-2.40;99.90
792;DHT22;379;49.022;12.148;2022-12-16T06:37:59;-2.40;99.90
792;DHT22;379;49.022;12.148;2022-12-16T06:40:43;-2.40;99.90
792;DHT22;379;49.022;12.148;2022-12-16T06:43:27;-2.40;99.90
792;DHT22;379;49.022;12.148;2022-12-16T06:46:13;-2.50;99.90
792;DHT22;379;49.022;12.148;2022-12-16T06:48:57;-2.50;99.90
792;DHT22;379;49.022;12.148;2022-12-16T06:51:41;-2.50;99.90
792;DHT22;379;49.022;12.148;2022-12-16T06:54:25;-2.50;99.90
792;DHT22;379;49.022;12.148;2022-12-16T06:57:10;-2.50;99.90
792;DHT22;379;49.022;12.148;2022-12-16T06:59:54;-2.50;99.90
792;DHT22;379;49.022;12.148;2022-12-16T07:02:39;-2.50;99.90
792;DHT22;379;49.022;12.148;2022-12-16T07:05:24;-2.50;99.90
792;DHT22;379;49.022;12.148;2022-12-16T07:08:08;-2.50;99.90
792;DHT22;379;49.022;12.148;2022-12-16T07:10:52;-2.50;99.90
792;DHT22;379;49.022;12.148;2022-12-16T07:13:51;-2.50;99.90
792;DHT22;379;49.022;12.148;2022-12-16T07:16:37;-2.50;99.90
792;DHT22;379;49.022;12.148;2022-12-16T07:19:23;-2.50;99.90
792;DHT22;379;49.022;12.148;2022-12-16T07:22:07;-2.50;99.90
792;DHT22;379;49.022;12.148;2022-12-16T07:24:51;-2.50;99.90
792;DHT22;379;49.022;12.148;2022-12-16T07:27:35;-2.50;99.90
792;DHT22;379;49.022;12.148;2022-12-16T07:30:20;-2.50;99.90
792;DHT22;379;49.022;12.148;2022-12-16T07:33:04;-2.50;99.90
792;DHT22;379;49.022;12.148;2022-12-16T07:35:49;-2.40;99.90
792;DHT22;379;49.022;12.148;2022-12-16T07:38:34;-2.40;99.90
792;DHT22;379;49.022;12.148;2022-12-16T07:41:18;-2.30;99.90
792;DHT22;379;49.022;12.148;2022-12-16T07:44:02;-2.20;99.90
792;DHT22;379;49.022;12.148;2022-12-16T07:46:47;-2.10;99.90
792;DHT22;379;49.022;12.148;2022-12-16T07:49:31;-2.00;99.90
792;DHT22;379;49.022;12.148;2022-12-16T07:52:16;-2.00;99.90
792;DHT22;379;49.022;12.148;2022-12-16T07:55:00;-1.90;99.90
792;DHT22;379;49.022;12.148;2022-12-16T07:57:48;-1.80;99.90
792;DHT22;379;49.022;12.148;2022-12-16T08:00:33;-1.70;99.90
792;DHT22;379;49.022;12.148;2022-12-16T08:03:17;-1.70;99.90
792;DHT22;379;49.022;12.148;2022-12-16T08:06:01;-1.70;99.90
792;DHT22;379;49.022;12.148;2022-12-16T08:08:46;-1.70;99.90
792;DHT22;379;49.022;12.148;2022-12-16T08:11:30;-1.70;99.90
792;DHT22;379;49.022;12.148;2022-12-16T08:14:15;-1.70;99.90
792;DHT22;379;49.022;12.148;2022-12-16T08:16:59;-1.70;99.90
792;DHT22;379;49.022;12.148;2022-12-16T08:19:43;-1.70;99.90
792;DHT22;379;49.022;12.148;2022-12-16T08:22:27;-1.70;99.90
792;DHT22;379;49.022;12.148;2022-12-16T08:25:12;-1.70;99.90
792;DHT22;379;49.022;12.148;2022-12-16T08:27:57;-1.70;99.90
792;DHT22;379;49.022;12.148;2022-12-16T08:30:41;-1.70;99.90
792;DHT22;379;49.022;12.148;2022-12-16T08:33:25;-1.70;99.90
792;DHT22;379;49.022;12.148;2022-12-16T08:36:10;-1.70;99.90
792;DHT22;379;49.022;12.148;2022-12-16T08:38:54;-1.70;99.90
792;DHT22;379;49.022;12.148;2022-12-16T08:41:39;-1.70;99.90
792;DHT22;379;49.022;12.148;2022-12-16T08:44:24;-1.70;99.90
792;DHT22;379;49.022;12.148;2022-12-16T08:47:08;-1.70;99.90
792;DHT22;379;49.022;12.148;2022-12-16T08:49:53;-1.60;99.90
792;DHT22;379;49.022;12.148;2022-12-16T08:52:37;-1.50;99.90
792;DHT22;379;49.022;12.148;2022-12-16T08:55:20;-1.40;99.90
792;DHT22;379;49.022;12.148;2022-12-16T08:58:06;-1.30;99.90
792;DHT22;379;49.022;12.148;2022-12-16T09:00:50;-1.30;99.90
792;DHT22;379;49.022;12.148;2022-12-16T09:03:34;-1.20;99.90
792;DHT22;379;49.022;12.148;2022-12-16T09:06:19;-1.20;99.90
792;DHT22;379;49.022;12.148;2022-12-16T09:09:03;-1.10;99.90
792;DHT22;379;49.022;12.148;2022-12-16T09:11:47;-1.20;99.90
792;DHT22;379;49.022;12.148;2022-12-16T09:14:32;-1.10;99.90
792;DHT22;379;49.022;12.148;2022-12-16T09:17:16;-1.10;99.90
792;DHT22;379;49.022;12.148;2022-12-16T09:20:01;-1.00;99.90
792;DHT22;379;49.022;12.148;2022-12-16T09:22:45;-1.00;99.90
792;DHT22;379;49.022;12.148;2022-12-16T09:25:29;-0.80;99.90
792;DHT22;379;49.022;12.148;2022-12-16T09:28:14;-0.70;99.90
792;DHT22;379;49.022;12.148;2022-12-16T09:30:59;-0.40;99.90
792;DHT22;379;49.022;12.148;2022-12-16T09:33:43;-0.20;99.90
792;DHT22;379;49.022;12.148;2022-12-16T09:36:27;-0.10;99.90
792;DHT22;379;49.022;12.148;2022-12-16T09:39:12;0.10;99.90
792;DHT22;379;49.022;12.148;2022-12-16T09:42:02;0.20;99.90
792;DHT22;379;49.022;12.148;2022-12-16T09:44:55;0.30;99.90
792;DHT22;379;49.022;12.148;2022-12-16T09:47:50;0.20;99.90
792;DHT22;379;49.022;12.148;2022-12-16T09:50:39;0.20;99.90
792;DHT22;379;49.022;12.148;2022-12-16T09:53:25;0.10;99.90
792;DHT22;379;49.022;12.148;2022-12-16T09:56:15;0.00;99.90
792;DHT22;379;49.022;12.148;2022-12-16T09:59:05;-0.10;99.90
792;DHT22;379;49.022;12.148;2022-12-16T10:01:51;-0.10;99.90
792;DHT22;379;49.022;12.148;2022-12-16T10:04:37;-0.10;99.90
792;DHT22;379;49.022;12.148;2022-12-16T10:07:22;0.00;99.90
792;DHT22;379;49.022;12.148;2022-12-16T10:10:16;0.00;99.90
792;DHT22;379;49.022;12.148;2022-12-16T10:13:11;0.00;99.90
792;DHT22;379;49.022;12.148;2022-12-16T10:16:06;0.00;99.90
792;DHT22;379;49.022;12.148;2022-12-16T10:18:57;0.00;99.90
792;DHT22;379;49.022;12.148;2022-12-16T10:21:50;0.00;99.90
792;DHT22;379;49.022;12.148;2022-12-16T10:24:47;0.00;99.90
792;DHT22;379;49.022;12.148;2022-12-16T10:27:41;0.00;99.90
792;DHT22;379;49.022;12.148;2022-12-16T10:30:26;0.00;99.90
792;DHT22;379;49.022;12.148;2022-12-16T10:33:13;0.00;99.90
792;DHT22;379;49.022;12.148;2022-12-16T10:35:58;-0.10;99.90
792;DHT22;379;49.022;12.148;2022-12-16T10:38:47;-0.10;99.90
792;DHT22;379;49.022;12.148;2022-12-16T10:41:35;-0.20;99.90
792;DHT22;379;49.022;12.148;2022-12-16T10:44:23;-0.20;99.90
792;DHT22;379;49.022;12.148;2022-12-16T10:47:09;-0.30;99.90
792;DHT22;379;49.022;12.148;2022-12-16T10:49:54;-0.20;99.90
792;DHT22;379;49.022;12.148;2022-12-16T10:52:54;-0.20;99.90
792;DHT22;379;49.022;12.148;2022-12-16T10:55:56;-0.10;99.90
792;DHT22;379;49.022;12.148;2022-12-16T10:58:46;0.00;99.90
792;DHT22;379;49.022;12.148;2022-12-16T11:01:33;0.10;99.90
792;DHT22;379;49.022;12.148;2022-12-16T11:04:29;0.10;99.90
792;DHT22;379;49.022;12.148;2022-12-16T11:07:25;0.10;99.90
792;DHT22;379;49.022;12.148;2022-12-16T11:10:29;0.30;99.90
792;DHT22;379;49.022;12.148;2022-12-16T11:13:26;0.50;99.90
792;DHT22;379;49.022;12.148;2022-12-16T11:16:13;0.70;99.90
792;DHT22;379;49.022;12.148;2022-12-16T11:18:58;1.00;99.90
792;DHT22;379;49.022;12.148;2022-12-16T11:21:42;1.20;99.90
792;DHT22;379;49.022;12.148;2022-12-16T11:24:27;1.30;99.90
792;DHT22;379;49.022;12.148;2022-12-16T11:27:20;1.20;99.90
792;DHT22;379;49.022;12.148;2022-12-16T11:30:15;1.30;99.90
792;DHT22;379;49.022;12.148;2022-12-16T11:33:05;1.30;99.90
792;DHT22;379;49.022;12.148;2022-12-16T11:35:57;1.30;99.90
792;DHT22;379;49.022;12.148;2022-12-16T11:38:45;1.40;99.90
792;DHT22;379;49.022;12.148;2022-12-16T11:41:32;1.60;99.90
792;DHT22;379;49.022;12.148;2022-12-16T11:44:19;1.50;99.90
792;DHT22;379;49.022;12.148;2022-12-16T11:47:11;1.30;99.90
792;DHT22;379;49.022;12.148;2022-12-16T11:49:59;1.20;99.90
792;DHT22;379;49.022;12.148;2022-12-16T11:52:50;0.90;99.90
792;DHT22;379;49.022;12.148;2022-12-16T11:55:36;0.70;99.90
792;DHT22;379;49.022;12.148;2022-12-16T11:58:28;0.60;99.90
792;DHT22;379;49.022;12.148;2022-12-16T12:01:17;0.60;99.90
792;DHT22;379;49.022;12.148;2022-12-16T12:04:04;0.60;99.90
792;DHT22;379;49.022;12.148;2022-12-16T12:07:10;0.50;99.90
792;DHT22;379;49.022;12.148;2022-12-16T12:10:07;0.50;99.90
792;DHT22;379;49.022;12.148;2022-12-16T12:12:57;0.50;99.90
792;DHT22;379;49.022;12.148;2022-12-16T12:15:51;0.60;99.90
792;DHT22;379;49.022;12.148;2022-12-16T12:18:43;0.60;99.90
792;DHT22;379;49.022;12.148;2022-12-16T12:21:37;0.50;99.90
792;DHT22;379;49.022;12.148;2022-12-16T12:24:30;0.40;99.90
792;DHT22;379;49.022;12.148;2022-12-16T12:27:20;0.30;99.90
792;DHT22;379;49.022;12.148;2022-12-16T12:30:11;0.30;99.90
792;DHT22;379;49.022;12.148;2022-12-16T12:33:11;0.40;99.90
792;DHT22;379;49.022;12.148;2022-12-16T12:36:03;0.40;99.90
792;DHT22;379;49.022;12.148;2022-12-16T12:39:01;0.30;99.90
792;DHT22;379;49.022;12.148;2022-12-16T12:41:56;0.30;99.90
792;DHT22;379;49.022;12.148;2022-12-16T12:44:52;0.20;99.90
792;DHT22;379;49.022;12.148;2022-12-16T12:47:52;0.20;99.90
792;DHT22;379;49.022;12.148;2022-12-16T12:50:42;0.20;99.90
792;DHT22;379;49.022;12.148;2022-12-16T12:53:38;0.20;99.90
792;DHT22;379;49.022;12.148;2022-12-16T12:56:35;0.20;99.90
792;DHT22;379;49.022;12.148;2022-12-16T12:59:25;0.30;99.90
792;DHT22;379;49.022;12.148;2022-12-16T13:02:14;0.20;99.90
792;DHT22;379;49.022;12.148;2022-12-16T13:04:59;0.10;99.90
792;DHT22;379;49.022;12.148;2022-12-16T13:07:44;0.10;99.90
792;DHT22;379;49.022;12.148;2022-12-16T13:10:33;0.00;99.90
792;DHT22;379;49.022;12.148;2022-12-16T13:13:32;0.10;99.90
792;DHT22;379;49.022;12.148;2022-12-16T13:19:43;0.10;99.90
792;DHT22;379;49.022;12.148;2022-12-16T13:22:36;0.00;99.90
792;DHT22;379;49.022;12.148;2022-12-16T13:25:37;0.00;99.90
792;DHT22;379;49.022;12.148;2022-12-16T13:28:24;-0.10;99.90
792;DHT22;379;49.022;12.148;2022-12-16T13:31:11;-0.10;99.90
792;DHT22;379;49.022;12.148;2022-12-16T13:34:01;-0.10;99.90
792;DHT22;379;49.022;12.148;2022-12-16T13:36:52;-0.10;99.90
792;DHT22;379;49.022;12.148;2022-12-16T13:39:38;-0.20;99.90
792;DHT22;379;49.022;12.148;2022-12-16T13:42:48;-0.20;99.90
792;DHT22;379;49.022;12.148;2022-12-16T13:45:34;-0.10;99.90
792;DHT22;379;49.022;12.148;2022-12-16T13:48:31;0.00;99.90
792;DHT22;379;49.022;12.148;2022-12-16T13:57:54;-0.20;99.90
792;DHT22;379;49.022;12.148;2022-12-16T14:01:03;-0.30;99.90
792;DHT22;379;49.022;12.148;2022-12-16T14:03:51;-0.40;99.90
792;DHT22;379;49.022;12.148;2022-12-16T14:06:37;-0.50;99.90
792;DHT22;379;49.022;12.148;2022-12-16T14:09:28;-0.50;99.90
792;DHT22;379;49.022;12.148;2022-12-16T14:12:19;-0.60;99.90
792;DHT22;379;49.022;12.148;2022-12-16T14:15:12;-0.60;99.90
792;DHT22;379;49.022;12.148;2022-12-16T14:18:03;-0.60;99.90
792;DHT22;379;49.022;12.148;2022-12-16T14:20:54;-0.60;99.90
792;DHT22;379;49.022;12.148;2022-12-16T14:23:46;-0.70;99.90
792;DHT22;379;49.022;12.148;2022-12-16T14:26:34;-0.70;99.90
792;DHT22;379;49.022;12.148;2022-12-16T14:29:21;-0.70;99.90
792;DHT22;379;49.022;12.148;2022-12-16T14:32:27;-0.80;99.90
792;DHT22;379;49.022;12.148;2022-12-16T14:35:13;-0.80;99.90
792;DHT22;379;49.022;12.148;2022-12-16T14:38:13;-0.90;99.90
792;DHT22;379;49.022;12.148;2022-12-16T14:41:03;-0.90;99.90
792;DHT22;379;49.022;12.148;2022-12-16T14:43:47;-1.00;99.90
792;DHT22;379;49.022;12.148;2022-12-16T14:46:31;-1.00;99.90
792;DHT22;379;49.022;12.148;2022-12-16T14:49:19;-1.00;99.90
792;DHT22;379;49.022;12.148;2022-12-16T14:52:17;-1.00;99.90
792;DHT22;379;49.022;12.148;2022-12-16T14:55:15;-1.00;99.90
792;DHT22;379;49.022;12.148;2022-12-16T14:58:04;-1.10;99.90
792;DHT22;379;49.022;12.148;2022-12-16T15:00:49;-1.00;99.90
792;DHT22;379;49.022;12.148;2022-12-16T15:03:37;-1.10;99.90
792;DHT22;379;49.022;12.148;2022-12-16T15:06:34;-1.10;99.90
792;DHT22;379;49.022;12.148;2022-12-16T15:09:24;-1.10;99.90
792;DHT22;379;49.022;12.148;2022-12-16T15:12:12;-1.10;99.90
792;DHT22;379;49.022;12.148;2022-12-16T15:14:57;-1.10;99.90
792;DHT22;379;49.022;12.148;2022-12-16T15:17:48;-1.20;99.90
792;DHT22;379;49.022;12.148;2022-12-16T15:20:35;-1.10;99.90
792;DHT22;379;49.022;12.148;2022-12-16T15:23:19;-1.20;99.90
792;DHT22;379;49.022;12.148;2022-12-16T15:26:05;-1.20;99.90
792;DHT22;379;49.022;12.148;2022-12-16T15:28:51;-1.20;99.90
792;DHT22;379;49.022;12.148;2022-12-16T15:31:37;-1.20;99.90
792;DHT22;379;49.022;12.148;2022-12-16T15:34:24;-1.20;99.90
792;DHT22;379;49.022;12.148;2022-12-16T15:37:33;-1.20;99.90
792;DHT22;379;49.022;12.148;2022-12-16T15:40:22;-1.20;99.90
792;DHT22;379;49.022;12.148;2022-12-16T15:43:20;-1.20;99.90
792;DHT22;379;49.022;12.148;2022-12-16T15:46:16;-1.20;99.90
792;DHT22;379;49.022;12.148;2022-12-16T15:49:00;-1.10;99.90
792;DHT22;379;49.022;12.148;2022-12-16T15:51:46;-1.20;99.90
792;DHT22;379;49.022;12.148;2022-12-16T15:54:31;-1.20;99.90
792;DHT22;379;49.022;12.148;2022-12-16T15:57:24;-1.20;99.90
792;DHT22;379;49.022;12.148;2022-12-16T16:00:19;-1.10;99.90
792;DHT22;379;49.022;12.148;2022-12-16T16:03:18;-1.10;99.90
792;DHT22;379;49.022;12.148;2022-12-16T16:06:03;-1.20;99.90
792;DHT22;379;49.022;12.148;2022-12-16T16:08:50;-1.20;99.90
792;DHT22;379;49.022;12.148;2022-12-16T16:11:34;-1.20;99.90
792;DHT22;379;49.022;12.148;2022-12-16T16:14:18;-1.20;99.90
792;DHT22;379;49.022;12.148;2022-12-16T16:17:20;-1.20;99.90
792;DHT22;379;49.022;12.148;2022-12-16T16:20:08;-1.20;99.90
792;DHT22;379;49.022;12.148;2022-12-16T16:22:56;-1.20;99.90
792;DHT22;379;49.022;12.148;2022-12-16T16:25:41;-1.20;99.90
792;DHT22;379;49.022;12.148;2022-12-16T16:28:25;-1.20;99.90
792;DHT22;379;49.022;12.148;2022-12-16T16:31:09;-1.20;99.90
792;DHT22;379;49.022;12.148;2022-12-16T16:33:53;-1.20;99.90
792;DHT22;379;49.022;12.148;2022-12-16T16:36:39;-1.20;99.90
792;DHT22;379;49.022;12.148;2022-12-16T16:39:23;-1.20;99.90
792;DHT22;379;49.022;12.148;2022-12-16T16:42:07;-1.20;99.90
792;DHT22;379;49.022;12.148;2022-12-16T16:44:52;-1.20;99.90
792;DHT22;379;49.022;12.148;2022-12-16T16:47:36;-1.20;99.90
792;DHT22;379;49.022;12.148;2022-12-16T16:50:20;-1.20;99.90
792;DHT22;379;49.022;12.148;2022-12-16T16:53:10;-1.20;99.90
792;DHT22;379;49.022;12.148;2022-12-16T16:55:56;-1.30;99.90
792;DHT22;379;49.022;12.148;2022-12-16T16:58:40;-1.30;99.90
792;DHT22;379;49.022;12.148;2022-12-16T17:01:24;-1.30;99.90
792;DHT22;379;49.022;12.148;2022-12-16T17:04:08;-1.30;99.90
792;DHT22;379;49.022;12.148;2022-12-16T17:06:52;-1.30;99.90
792;DHT22;379;49.022;12.148;2022-12-16T17:09:38;-1.30;99.90
792;DHT22;379;49.022;12.148;2022-12-16T17:12:24;-1.20;99.90
792;DHT22;379;49.022;12.148;2022-12-16T17:15:14;-1.20;99.90
792;DHT22;379;49.022;12.148;2022-12-16T17:17:58;-1.20;99.90
792;DHT22;379;49.022;12.148;2022-12-16T17:20:42;-1.20;99.90
792;DHT22;379;49.022;12.148;2022-12-16T17:23:27;-1.20;99.90
792;DHT22;379;49.022;12.148;2022-12-16T17:26:12;-1.20;99.90
792;DHT22;379;49.022;12.148;2022-12-16T17:28:59;-1.20;99.90
792;DHT22;379;49.022;12.148;2022-12-16T17:31:43;-1.20;99.90
792;DHT22;379;49.022;12.148;2022-12-16T17:34:27;-1.20;99.90
792;DHT22;379;49.022;12.148;2022-12-16T17:37:11;-1.20;99.90
792;DHT22;379;49.022;12.148;2022-12-16T17:39:55;-1.20;99.90
792;DHT22;379;49.022;12.148;2022-12-16T17:42:40;-1.20;99.90
792;DHT22;379;49.022;12.148;2022-12-16T17:45:25;-1.20;99.90
792;DHT22;379;49.022;12.148;2022-12-16T17:48:09;-1.20;99.90
792;DHT22;379;49.022;12.148;2022-12-16T17:50:53;-1.20;99.90
792;DHT22;379;49.022;12.148;2022-12-16T17:53:37;-1.20;99.90
792;DHT22;379;49.022;12.148;2022-12-16T17:56:21;-1.20;99.90
792;DHT22;379;49.022;12.148;2022-12-16T17:59:07;-1.20;99.90
792;DHT22;379;49.022;12.148;2022-12-16T18:01:51;-1.30;99.90
792;DHT22;379;49.022;12.148;2022-12-16T18:04:35;-1.30;99.90
792;DHT22;379;49.022;12.148;2022-12-16T18:07:20;-1.30;99.90
792;DHT22;379;49.022;12.148;2022-12-16T18:10:04;-1.30;99.90
792;DHT22;379;49.022;12.148;2022-12-16T18:12:49;-1.30;99.90
792;DHT22;379;49.022;12.148;2022-12-16T18:15:34;-1.30;99.90
792;DHT22;379;49.022;12.148;2022-12-16T18:18:18;-1.40;99.90